Time;durP1;ratioP1;P1;durP2;ratioP2;P2;SDS_P1;SDS_P2;PMS_P1;PMS_P2;Temp;Humidity;BMP_temperature;BMP_pressure;BME280_temperature;BME280_humidity;BME280_pressure;Samples;Min_cycle;Max_cycle;Signal;HPM_P1;HPM_P2
2021/06/02 00:00:46;;;;;;;1.70;0.80;;;;;;;13.60;64.18;100115.28;5026543;28;20033;-24
2021/06/02 00:03:13;;;;;;;1.35;0.80;;;;;;;13.49;64.73;100113.44;5027540;28;20026;-24
2021/06/02 00:05:39;;;;;;;1.90;0.82;;;;;;;13.40;64.74;100086.22;5027367;28;20091;-24
2021/06/02 00:08:06;;;;;;;1.00;0.57;;;;;;;14.00;62.40;100110.94;5027278;28;20029;-24
2021/06/02 00:10:31;;;;;;;0.90;0.65;;;;;;;13.64;63.41;100111.06;5009950;28;20052;-24
2021/06/02 00:12:57;;;;;;;2.67;1.17;;;;;;;13.91;62.69;100110.50;5027460;28;20422;-24
2021/06/02 00:15:22;;;;;;;1.92;0.70;;;;;;;14.30;61.37;100107.97;5009877;28;20033;-24
2021/06/02 00:17:51;;;;;;;2.05;0.70;;;;;;;14.17;62.52;100111.78;5026006;28;20029;-24
2021/06/02 00:20:16;;;;;;;2.75;0.68;;;;;;;13.95;62.79;100100.91;5024937;28;20482;-24
2021/06/02 00:22:42;;;;;;;1.70;0.88;;;;;;;14.38;61.89;100112.13;5027302;28;20025;-24
2021/06/02 00:25:08;;;;;;;2.10;0.77;;;;;;;14.21;62.11;100094.16;5027450;28;20413;-24
2021/06/02 00:27:35;;;;;;;3.65;0.80;;;;;;;14.20;61.96;100111.31;5027071;28;20022;-24
2021/06/02 00:30:01;;;;;;;2.25;0.95;;;;;;;14.06;63.02;100116.16;5026605;28;20034;-24
2021/06/02 00:32:26;;;;;;;0.85;0.80;;;;;;;13.61;64.02;100095.47;5026865;28;20034;-24
2021/06/02 00:34:52;;;;;;;5.57;0.80;;;;;;;13.57;64.61;100088.97;5026356;28;20421;-24
2021/06/02 00:37:17;;;;;;;1.40;0.88;;;;;;;13.80;63.84;100095.28;5027617;28;20033;-24
2021/06/02 00:39:47;;;;;;;2.33;1.02;;;;;;;13.99;63.47;100107.44;5026618;28;20402;-24
2021/06/02 00:42:12;;;;;;;1.83;1.20;;;;;;;14.14;63.34;100119.50;5009171;28;20026;-24
2021/06/02 00:44:38;;;;;;;1.20;0.80;;;;;;;14.19;63.04;100103.50;5027009;28;20025;-25
2021/06/02 00:47:04;;;;;;;1.88;0.77;;;;;;;14.19;63.60;100117.72;5026074;28;20033;-24
2021/06/02 00:49:29;;;;;;;3.45;1.20;;;;;;;13.65;65.40;100117.25;5025778;28;20103;-24
2021/06/02 00:51:58;;;;;;;2.92;1.20;;;;;;;13.87;65.04;100114.72;5026900;28;20452;-24
2021/06/02 00:54:25;;;;;;;2.70;1.10;;;;;;;14.00;63.27;100098.34;5027313;28;20831;-24
2021/06/02 00:56:54;;;;;;;2.03;1.17;;;;;;;13.50;65.20;100095.50;5027161;28;20064;-25
2021/06/02 00:59:23;;;;;;;3.65;1.15;;;;;;;13.57;65.23;100105.03;5025724;28;20033;-25
2021/06/02 01:01:48;;;;;;;1.10;1.00;;;;;;;13.88;64.13;100111.00;5025572;28;20111;-24
2021/06/02 01:04:14;;;;;;;3.92;1.08;;;;;;;13.76;64.55;100107.53;5026373;28;20513;-24
2021/06/02 01:06:40;;;;;;;2.67;1.10;;;;;;;13.15;65.97;100105.19;5009466;28;20049;-24
2021/06/02 01:09:06;;;;;;;4.13;1.30;;;;;;;12.74;67.06;100103.47;5026951;28;20033;-25
2021/06/02 01:11:31;;;;;;;2.58;0.93;;;;;;;12.51;69.02;100112.31;5026812;28;20441;-24
2021/06/02 01:13:58;;;;;;;2.97;0.82;;;;;;;12.50;69.03;100108.78;5025515;28;20033;-24
2021/06/02 01:16:31;;;;;;;1.48;0.90;;;;;;;12.39;68.88;100107.72;5025573;28;20838;-24
2021/06/02 01:18:57;;;;;;;3.00;0.82;;;;;;;12.20;69.77;100128.38;5025436;28;20041;-24
2021/06/02 01:21:24;;;;;;;6.55;1.00;;;;;;;12.18;70.15;100113.63;5027218;28;20045;-25
2021/06/02 01:23:57;;;;;;;1.13;0.80;;;;;;;12.23;69.14;100113.75;5026618;28;20104;-24
2021/06/02 01:26:26;;;;;;;2.88;0.88;;;;;;;12.31;68.86;100117.94;5026768;28;20044;-24
2021/06/02 01:28:52;;;;;;;2.10;0.88;;;;;;;12.34;68.68;100118.31;5025668;28;20026;-24
2021/06/02 01:31:49;;;;;;;2.70;0.95;;;;;;;12.14;69.20;100117.81;5026707;28;20034;-24
2021/06/02 01:34:39;;;;;;;1.15;1.05;;;;;;;12.24;68.25;100124.22;5029138;28;20033;-24
2021/06/02 01:37:23;;;;;;;2.22;0.98;;;;;;;12.67;67.38;100125.00;5030389;28;20033;-25
2021/06/02 01:39:59;;;;;;;1.80;1.00;;;;;;;12.63;66.55;100115.81;5030438;28;20033;-24
2021/06/02 01:42:25;;;;;;;1.92;1.02;;;;;;;12.68;66.80;100129.28;5012602;28;20033;-24
2021/06/02 01:44:50;;;;;;;2.65;0.93;;;;;;;12.67;67.48;100133.03;5028868;28;20056;-24
2021/06/02 01:47:34;;;;;;;2.35;1.10;;;;;;;13.13;65.82;100134.06;5030323;28;20068;-25
2021/06/02 01:50:28;;;;;;;2.70;1.00;;;;;;;13.24;65.11;100141.28;5030141;28;20028;-24
2021/06/02 01:53:11;;;;;;;2.75;1.05;;;;;;;12.90;66.34;100132.22;5028282;28;20053;-25
2021/06/02 01:56:05;;;;;;;5.70;1.10;;;;;;;12.65;66.83;100135.94;5030221;28;20025;-26
2021/06/02 01:59:08;;;;;;;2.92;1.00;;;;;;;12.54;67.01;100128.69;5028170;28;20087;-24
2021/06/02 02:01:48;;;;;;;3.22;1.05;;;;;;;12.43;67.53;100141.00;5030122;28;20211;-24
2021/06/02 02:04:44;;;;;;;2.03;0.90;;;;;;;12.42;67.28;100144.72;5029680;28;20040;-24
2021/06/02 02:07:31;;;;;;;2.13;1.00;;;;;;;12.31;67.74;100117.94;5030323;28;20029;-28
2021/06/02 02:10:03;;;;;;;1.60;0.98;;;;;;;12.54;67.26;100133.22;5029953;28;20034;-24
2021/06/02 02:12:50;;;;;;;16.48;1.85;;;;;;;12.20;68.63;100148.97;5029216;28;20034;-24
2021/06/02 02:15:40;;;;;;;2.45;1.10;;;;;;;11.97;68.89;100149.69;5030137;28;20033;-27
2021/06/02 02:18:35;;;;;;;1.85;0.93;;;;;;;11.67;70.32;100137.09;5029465;28;20068;-25
2021/06/02 02:21:09;;;;;;;1.98;1.13;;;;;;;11.77;69.73;100144.53;5029032;28;20073;-25
2021/06/02 02:23:58;;;;;;;3.40;1.00;;;;;;;12.12;68.00;100147.44;5029425;28;20116;-24
2021/06/02 02:26:35;;;;;;;2.80;1.05;;;;;;;12.09;67.64;100150.53;5027988;28;20033;-24
2021/06/02 02:29:07;;;;;;;2.50;1.20;;;;;;;12.46;67.06;100156.59;5028320;28;20607;-24
2021/06/02 02:32:09;;;;;;;2.42;0.98;;;;;;;12.49;67.54;100157.19;5029218;28;20120;-24
2021/06/02 02:34:43;;;;;;;6.82;1.25;;;;;;;12.83;66.02;100161.78;5029496;28;20114;-24
2021/06/02 02:37:16;;;;;;;1.40;1.00;;;;;;;12.37;67.08;100163.31;5029311;28;20398;-25
2021/06/02 02:39:54;;;;;;;2.08;1.20;;;;;;;12.52;67.07;100156.72;5027978;28;20103;-24
2021/06/02 02:42:27;;;;;;;2.78;1.20;;;;;;;12.50;67.63;100148.91;5027779;28;20027;-24
2021/06/02 02:45:03;;;;;;;1.92;1.00;;;;;;;12.56;67.45;100163.25;5027053;28;20032;-24
2021/06/02 02:47:33;;;;;;;1.60;1.00;;;;;;;12.73;66.87;100166.91;5028935;28;20040;-24
2021/06/02 02:50:24;;;;;;;2.45;0.90;;;;;;;12.54;67.13;100176.03;5028826;28;20034;-24
2021/06/02 02:52:50;;;;;;;3.90;1.20;;;;;;;12.73;66.57;100179.44;5027532;28;20140;-24
2021/06/02 02:55:29;;;;;;;3.10;1.02;;;;;;;12.62;66.07;100176.50;5028858;28;20105;-24
2021/06/02 02:58:05;;;;;;;1.85;0.90;;;;;;;13.00;64.41;100167.25;5027569;28;20037;-24
2021/06/02 03:00:32;;;;;;;4.45;0.90;;;;;;;13.04;65.22;100164.94;5011264;28;20043;-24
2021/06/02 03:03:10;;;;;;;3.60;1.10;;;;;;;13.38;64.43;100179.41;5028524;28;20109;-24
2021/06/02 03:05:39;;;;;;;5.60;1.10;;;;;;;13.16;65.24;100178.34;5027843;28;20870;-24
2021/06/02 03:08:07;;;;;;;7.20;1.30;;;;;;;12.94;65.74;100175.41;5028559;28;20040;-25
2021/06/02 03:10:33;;;;;;;1.65;1.08;;;;;;;12.90;65.99;100183.09;5028506;28;20047;-24
2021/06/02 03:13:05;;;;;;;2.08;1.10;;;;;;;13.23;65.17;100179.81;5010712;28;20845;-26
2021/06/02 03:15:33;;;;;;;3.75;1.30;;;;;;;13.53;63.73;100188.81;5010829;28;20030;-24
2021/06/02 03:18:06;;;;;;;4.30;1.20;;;;;;;13.08;65.28;100190.19;5028480;28;20083;-24
2021/06/02 03:21:09;;;;;;;12.30;1.70;;;;;;;13.22;65.65;100198.81;5027059;28;20032;-24
2021/06/02 03:24:15;;;;;;;6.68;1.38;;;;;;;12.89;66.46;100186.78;5028152;28;20048;-24
2021/06/02 03:26:48;;;;;;;2.67;1.45;;;;;;;13.08;65.67;100176.81;5015645;28;20037;-25
2021/06/02 03:29:14;;;;;;;2.85;1.60;;;;;;;13.46;64.69;100192.44;5010350;28;20033;-24
2021/06/02 03:31:54;;;;;;;4.13;1.20;;;;;;;13.37;65.56;100196.50;5027995;28;20033;-24
2021/06/02 03:34:36;;;;;;;2.38;1.40;;;;;;;13.45;65.22;100203.38;5027912;28;20099;-24
2021/06/02 03:37:16;;;;;;;1.40;1.00;;;;;;;13.21;66.00;100208.69;5028095;28;20084;-24
2021/06/02 03:39:48;;;;;;;3.88;1.60;;;;;;;13.20;66.36;100215.13;5028127;28;20030;-24
2021/06/02 03:42:23;;;;;;;4.20;1.60;;;;;;;13.32;66.35;100215.16;5027627;28;20061;-24
2021/06/02 03:44:54;;;;;;;3.15;1.55;;;;;;;13.81;64.83;100217.53;5028277;28;20044;-24
2021/06/02 03:47:35;;;;;;;4.38;1.45;;;;;;;13.64;64.53;100202.19;5027871;28;20029;-24
2021/06/02 03:50:23;;;;;;;2.45;1.50;;;;;;;13.59;63.82;100204.75;5010786;28;20033;-24
2021/06/02 03:52:49;;;;;;;2.05;1.33;;;;;;;13.79;62.69;100225.00;5027344;28;20049;-24
2021/06/02 03:55:14;;;;;;;2.88;1.35;;;;;;;13.34;64.81;100233.66;5027529;28;20026;-24
2021/06/02 03:58:00;;;;;;;3.63;1.45;;;;;;;12.83;67.77;100242.06;5028117;28;20032;-24
2021/06/02 04:00:41;;;;;;;6.95;1.83;;;;;;;12.22;70.60;100227.91;5022164;28;20395;-24
2021/06/02 04:03:12;;;;;;;3.33;1.65;;;;;;;12.16;71.11;100233.34;5010006;28;20030;-27
2021/06/02 04:05:47;;;;;;;5.15;2.13;;;;;;;12.40;69.50;100240.44;5026225;28;20090;-26
2021/06/02 04:08:23;;;;;;;4.25;1.52;;;;;;;12.59;69.22;100245.72;5027531;28;20060;-26
2021/06/02 04:10:57;;;;;;;4.72;1.67;;;;;;;13.01;67.48;100245.69;5026287;28;20025;-26
2021/06/02 04:13:44;;;;;;;3.40;1.50;;;;;;;13.33;66.54;100254.28;5027357;28;20044;-26
2021/06/02 04:16:17;;;;;;;4.07;1.60;;;;;;;13.40;66.00;100240.75;5027379;28;20448;-26
2021/06/02 04:18:43;;;;;;;1.70;1.13;;;;;;;13.66;64.12;100240.28;5026417;28;20052;-26
2021/06/02 04:21:10;;;;;;;3.42;1.60;;;;;;;13.63;65.46;100258.72;5027314;28;20025;-26
2021/06/02 04:23:37;;;;;;;3.15;1.30;;;;;;;13.58;65.55;100237.94;5027283;28;20059;-26
2021/06/02 04:26:03;;;;;;;2.20;1.38;;;;;;;13.83;64.28;100247.59;5025931;28;20452;-26
2021/06/02 04:28:31;;;;;;;3.17;1.48;;;;;;;13.79;65.56;100268.72;5025618;28;20584;-26
2021/06/02 04:31:02;;;;;;;3.25;1.20;;;;;;;13.99;64.80;100273.66;5027087;28;20030;-26
2021/06/02 04:33:28;;;;;;;3.40;1.52;;;;;;;13.46;66.28;100280.00;5027669;28;20037;-28
2021/06/02 04:35:53;;;;;;;4.82;1.50;;;;;;;13.30;67.57;100286.06;5026074;28;20328;-26
2021/06/02 04:38:19;;;;;;;3.22;1.30;;;;;;;13.60;67.09;100281.41;5009333;28;20029;-26
2021/06/02 04:40:44;;;;;;;1.90;1.30;;;;;;;13.70;66.63;100285.38;5026881;28;20026;-26
2021/06/02 04:43:10;;;;;;;1.63;1.10;;;;;;;13.97;65.33;100281.13;5009544;28;20095;-26
2021/06/02 04:45:36;;;;;;;3.15;1.38;;;;;;;14.35;63.71;100290.50;5025954;28;20022;-25
2021/06/02 04:48:01;;;;;;;3.13;1.10;;;;;;;14.38;63.09;100287.31;5025793;28;20038;-26
2021/06/02 04:50:30;;;;;;;2.42;1.00;;;;;;;14.18;63.74;100276.19;5025774;28;20037;-26
2021/06/02 04:53:05;;;;;;;4.55;1.20;;;;;;;14.29;63.28;100277.22;5025804;28;20053;-26
2021/06/02 04:55:55;;;;;;;4.70;1.20;;;;;;;14.51;63.27;100290.81;5025833;28;20036;-26
2021/06/02 04:58:54;;;;;;;3.97;1.20;;;;;;;14.30;64.05;100295.75;5026925;28;20897;-26
2021/06/02 05:02:17;;;;;;;1.13;1.00;;;;;;;14.70;62.75;100297.63;5026874;28;20029;-26
2021/06/02 05:05:04;;;;;;;1.40;1.15;;;;;;;14.92;62.10;100296.97;5024335;28;20121;-26
2021/06/02 05:07:47;;;;;;;3.47;1.20;;;;;;;14.80;62.30;100297.00;5026504;28;20038;-26
2021/06/02 05:10:34;;;;;;;2.47;1.00;;;;;;;15.10;62.93;100298.59;5029671;28;20280;-28
2021/06/02 05:13:26;;;;;;;0.90;0.77;;;;;;;15.32;61.20;100306.75;5030912;28;20102;-26
2021/06/02 05:16:28;;;;;;;1.05;0.65;;;;;;;15.00;60.86;100308.13;5030808;28;20029;-26
2021/06/02 05:19:22;;;;;;;2.22;0.77;;;;;;;14.83;62.14;100312.63;5030553;28;20422;-26
2021/06/02 05:22:07;;;;;;;0.95;0.60;;;;;;;15.23;61.81;100309.84;5030790;28;20056;-26
2021/06/02 05:24:54;;;;;;;0.93;0.57;;;;;;;15.23;61.08;100314.41;5030429;28;20153;-24
2021/06/02 05:28:03;;;;;;;1.13;0.65;;;;;;;15.45;60.17;100327.94;5030593;28;20030;-24
2021/06/02 05:30:44;;;;;;;1.08;0.68;;;;;;;15.10;61.27;100326.28;5029189;28;20046;-24
2021/06/02 05:33:53;;;;;;;0.63;0.55;;;;;;;15.17;60.40;100318.88;5030427;28;20033;-24
2021/06/02 05:36:43;;;;;;;1.05;0.70;;;;;;;15.19;61.39;100324.81;5028768;28;20429;-24
2021/06/02 05:39:50;;;;;;;1.35;0.75;;;;;;;15.32;59.39;100333.63;5030328;28;20083;-24
2021/06/02 05:42:37;;;;;;;0.60;0.60;;;;;;;15.01;60.45;100330.41;5029168;28;20037;-24
2021/06/02 05:45:33;;;;;;;0.60;0.60;;;;;;;14.98;61.66;100341.66;5030161;28;20041;-24
2021/06/02 05:48:36;;;;;;;0.70;0.50;;;;;;;15.24;58.98;100354.47;5030282;28;20112;-24
2021/06/02 05:51:17;;;;;;;1.55;0.70;;;;;;;15.06;59.68;100349.31;5030254;28;20040;-24
2021/06/02 05:54:09;;;;;;;0.63;0.55;;;;;;;15.50;59.56;100354.88;5029763;28;20049;-24
2021/06/02 05:57:19;;;;;;;1.15;0.60;;;;;;;15.84;58.10;100352.22;5028651;28;20075;-23
2021/06/02 06:00:22;;;;;;;1.83;0.43;;;;;;;15.47;55.13;100350.00;5027508;28;20076;-24
2021/06/02 06:02:51;;;;;;;0.98;0.32;;;;;;;15.65;55.63;100367.72;5030060;28;20505;-24
2021/06/02 06:05:50;;;;;;;0.70;0.50;;;;;;;15.95;56.48;100353.97;5028449;28;20418;-24
2021/06/02 06:08:34;;;;;;;0.90;0.63;;;;;;;15.91;55.99;100363.59;5029325;28;20033;-24
2021/06/02 06:11:24;;;;;;;0.93;0.50;;;;;;;15.98;56.26;100369.63;5029675;28;20067;-24
2021/06/02 06:14:12;;;;;;;1.38;0.50;;;;;;;16.01;57.28;100371.00;5029510;28;20079;-24
2021/06/02 06:17:01;;;;;;;0.82;0.60;;;;;;;16.24;56.70;100375.34;5028052;28;20044;-23
2021/06/02 06:19:29;;;;;;;0.95;0.38;;;;;;;16.56;55.33;100369.31;5027259;28;20116;-23
2021/06/02 06:22:07;;;;;;;0.52;0.40;;;;;;;16.56;53.04;100363.91;5029455;28;20037;-24
2021/06/02 06:24:43;;;;;;;1.23;0.60;;;;;;;16.60;54.97;100373.13;5029533;28;20025;-23
2021/06/02 06:27:36;;;;;;;0.65;0.50;;;;;;;16.91;53.82;100357.31;5028015;28;20029;-23
2021/06/02 06:30:28;;;;;;;0.60;0.40;;;;;;;17.10;53.18;100382.88;5028084;28;20040;-24
2021/06/02 06:32:56;;;;;;;2.47;0.43;;;;;;;16.96;52.06;100368.13;5027842;28;20084;-24
2021/06/02 06:35:21;;;;;;;1.17;0.40;;;;;;;16.92;53.53;100372.41;5027882;28;20037;-24
2021/06/02 06:37:49;;;;;;;0.90;0.38;;;;;;;17.21;52.32;100371.09;5027939;28;20048;-24
2021/06/02 06:40:16;;;;;;;2.17;0.40;;;;;;;17.46;50.49;100372.41;5027726;28;20061;-24
2021/06/02 06:42:43;;;;;;;0.30;0.30;;;;;;;17.37;51.32;100376.66;5011408;28;20547;-24
2021/06/02 06:45:16;;;;;;;1.25;0.38;;;;;;;17.35;51.00;100359.91;5011681;28;20064;-24
2021/06/02 06:47:43;;;;;;;2.92;0.30;;;;;;;17.71;49.69;100362.88;5027742;28;20048;-24
2021/06/02 06:50:10;;;;;;;1.73;0.50;;;;;;;17.71;50.69;100370.97;5011288;28;20494;-24
2021/06/02 06:52:35;;;;;;;0.45;0.28;;;;;;;18.30;47.87;100370.81;5027242;28;20055;-24
2021/06/02 06:55:02;;;;;;;0.70;0.43;;;;;;;18.47;49.41;100371.44;5027751;28;20029;-24
2021/06/02 06:57:27;;;;;;;1.70;1.15;;;;;;;18.57;47.78;100359.88;5011175;28;20045;-24
2021/06/02 06:59:53;;;;;;;1.25;0.50;;;;;;;18.68;47.31;100366.13;5027602;28;20044;-24
2021/06/02 07:02:19;;;;;;;1.17;0.50;;;;;;;18.86;46.14;100368.34;5010892;28;20052;-24
2021/06/02 07:04:44;;;;;;;0.95;0.45;;;;;;;19.33;45.40;100376.53;5027249;28;20405;-24
2021/06/02 07:07:10;;;;;;;1.88;1.00;;;;;;;19.15;44.86;100386.00;5027465;28;20107;-24
2021/06/02 07:09:36;;;;;;;0.20;0.20;;;;;;;18.76;44.60;100376.41;5029008;28;20146;-24
2021/06/02 07:12:01;;;;;;;0.82;0.25;;;;;;;18.93;45.68;100383.50;5027283;28;20037;-26
2021/06/02 07:14:30;;;;;;;0.90;0.20;;;;;;;19.26;45.15;100377.59;5027098;28;20036;-23
2021/06/02 07:16:57;;;;;;;4.30;0.50;;;;;;;19.52;46.05;100379.53;5028371;28;20072;-24
2021/06/02 07:19:23;;;;;;;1.52;0.35;;;;;;;18.98;45.83;100368.13;5028562;28;20386;-24
2021/06/02 07:21:49;;;;;;;0.98;0.50;;;;;;;19.12;45.81;100381.09;5028540;28;20044;-24
2021/06/02 07:24:18;;;;;;;0.40;0.30;;;;;;;19.30;46.00;100383.28;5010527;28;20025;-23
2021/06/02 07:26:44;;;;;;;0.90;0.40;;;;;;;19.95;45.36;100378.16;5028502;28;20041;-27
2021/06/02 07:29:09;;;;;;;0.80;0.28;;;;;;;20.02;42.00;100370.56;5027954;28;20025;-23
2021/06/02 07:31:35;;;;;;;3.20;1.50;;;;;;;20.01;42.51;100371.66;5027826;28;20154;-24
2021/06/02 07:34:00;;;;;;;0.60;0.50;;;;;;;20.24;40.68;100369.41;5028293;28;20026;-24
2021/06/02 07:36:26;;;;;;;0.28;0.20;;;;;;;19.59;42.33;100355.69;5027921;28;20405;-24
2021/06/02 07:38:51;;;;;;;0.85;0.50;;;;;;;19.25;46.24;100373.28;5026711;28;20025;-24
2021/06/02 07:41:16;;;;;;;0.90;0.35;;;;;;;19.86;45.77;100375.19;5027976;28;20630;-23
2021/06/02 07:43:42;;;;;;;0.52;0.40;;;;;;;20.22;42.18;100382.41;5027692;28;20025;-23
2021/06/02 07:46:07;;;;;;;0.30;0.30;;;;;;;19.98;40.95;100388.44;5027557;28;20037;-25
2021/06/02 07:48:33;;;;;;;0.60;0.25;;;;;;;19.82;43.65;100362.50;5027864;28;20029;-25
2021/06/02 07:50:58;;;;;;;0.40;0.40;;;;;;;19.35;44.63;100375.19;5027738;28;20060;-24
2021/06/02 07:53:24;;;;;;;0.65;0.40;;;;;;;19.27;47.57;100378.44;5027325;28;20053;-25
2021/06/02 07:55:50;;;;;;;0.40;0.20;;;;;;;19.04;45.96;100369.75;5027745;28;20033;-25
2021/06/02 07:58:15;;;;;;;1.42;0.60;;;;;;;18.88;45.82;100370.81;5027698;28;20091;-24
2021/06/02 08:00:41;;;;;;;0.80;0.38;;;;;;;18.90;42.98;100357.00;5027400;28;20029;-27
2021/06/02 08:03:06;;;;;;;0.25;0.20;;;;;;;19.10;44.38;100375.97;5028016;28;20033;-24
2021/06/02 08:05:32;;;;;;;0.63;0.30;;;;;;;19.55;43.05;100382.47;5027466;28;20037;-24
2021/06/02 08:07:57;;;;;;;1.00;0.40;;;;;;;19.96;43.26;100387.91;5027340;28;20029;-24
2021/06/02 08:10:23;;;;;;;0.65;0.40;;;;;;;19.90;44.82;100363.81;5027607;28;20029;-24
2021/06/02 08:12:49;;;;;;;0.35;0.25;;;;;;;19.07;43.99;100363.00;5027179;28;20036;-24
2021/06/02 08:15:14;;;;;;;3.70;1.13;;;;;;;19.40;44.05;100374.38;5027246;28;20030;-24
2021/06/02 08:17:40;;;;;;;1.13;0.47;;;;;;;19.57;43.62;100364.09;5027563;28;20412;-24
2021/06/02 08:20:08;;;;;;;0.68;0.40;;;;;;;19.66;41.25;100356.25;5027168;28;20037;-24
2021/06/02 08:22:33;;;;;;;0.47;0.35;;;;;;;19.87;43.57;100370.59;5026953;28;20116;-24
2021/06/02 08:25:01;;;;;;;0.22;0.20;;;;;;;20.22;42.60;100375.09;5027379;28;20104;-24
2021/06/02 08:27:26;;;;;;;0.63;0.32;;;;;;;20.55;41.62;100377.44;5027381;28;20539;-24
2021/06/02 08:29:53;;;;;;;0.40;0.40;;;;;;;20.71;42.87;100370.88;5027197;28;20033;-24
2021/06/02 08:32:20;;;;;;;0.68;0.40;;;;;;;20.26;44.08;100372.66;5026932;28;20091;-24
2021/06/02 08:34:45;;;;;;;1.20;0.60;;;;;;;20.10;44.20;100373.78;5027195;28;20099;-24
2021/06/02 08:37:13;;;;;;;0.50;0.40;;;;;;;19.60;44.56;100365.47;5027241;28;20478;-24
2021/06/02 08:39:39;;;;;;;0.52;0.20;;;;;;;19.56;42.73;100384.13;5027575;28;20048;-24
2021/06/02 08:42:04;;;;;;;1.85;0.40;;;;;;;19.96;43.88;100374.38;5028700;28;20038;-24
2021/06/02 08:44:30;;;;;;;1.23;0.30;;;;;;;19.58;42.78;100368.44;5030939;28;20401;-24
2021/06/02 08:46:55;;;;;;;0.63;0.25;;;;;;;20.04;42.58;100386.53;5013529;28;20038;-24
2021/06/02 08:49:21;;;;;;;0.43;0.38;;;;;;;19.82;42.95;100384.94;5030144;28;20029;-24
2021/06/02 08:51:46;;;;;;;0.65;0.35;;;;;;;20.09;43.30;100391.13;5031143;28;20128;-26
2021/06/02 08:54:12;;;;;;;0.80;0.40;;;;;;;19.84;40.65;100381.97;5029749;28;20041;-24
2021/06/02 08:56:42;;;;;;;2.55;0.40;;;;;;;20.17;42.46;100358.09;5029742;28;20045;-24
2021/06/02 08:59:07;;;;;;;1.17;0.30;;;;;;;20.49;41.22;100368.50;5030775;28;20528;-25
2021/06/02 09:01:33;;;;;;;0.50;0.38;;;;;;;21.38;40.37;100365.81;5031448;28;20156;-24
2021/06/02 09:04:06;;;;;;;2.22;0.70;;;;;;;21.43;41.34;100356.84;5031136;28;20026;-24
2021/06/02 09:06:31;;;;;;;0.65;0.35;;;;;;;21.79;38.95;100370.13;5013760;28;20042;-24
2021/06/02 09:08:57;;;;;;;1.02;0.60;;;;;;;21.87;40.17;100366.78;5029780;28;20032;-24
2021/06/02 09:11:22;;;;;;;3.03;0.40;;;;;;;21.94;39.87;100356.38;5030856;28;20038;-24
2021/06/02 09:13:48;;;;;;;1.13;0.40;;;;;;;22.30;36.65;100364.16;5029514;28;20842;-24
2021/06/02 09:16:26;;;;;;;0.30;0.30;;;;;;;21.70;37.01;100360.97;5030642;28;20033;-24
2021/06/02 09:19:05;;;;;;;0.77;0.20;;;;;;;21.37;39.10;100344.41;5030883;28;20036;-24
2021/06/02 09:21:31;;;;;;;0.20;0.20;;;;;;;21.72;41.59;100358.78;5030759;28;20036;-24
2021/06/02 09:23:57;;;;;;;1.08;0.20;;;;;;;21.10;39.53;100350.31;5030731;28;20029;-24
2021/06/02 09:26:23;;;;;;;1.67;0.30;;;;;;;21.07;38.09;100341.66;5030062;28;20033;-24
2021/06/02 09:28:50;;;;;;;0.43;0.30;;;;;;;21.37;38.65;100355.25;5030614;28;20136;-24
2021/06/02 09:31:19;;;;;;;1.00;0.40;;;;;;;21.50;38.15;100346.50;5030320;28;20045;-26
2021/06/02 09:33:45;;;;;;;1.65;0.43;;;;;;;21.59;38.94;100338.53;5030278;28;20044;-24
2021/06/02 09:36:10;;;;;;;1.15;0.75;;;;;;;21.83;38.38;100346.72;5030126;28;20108;-25
2021/06/02 09:38:36;;;;;;;2.40;0.95;;;;;;;21.86;40.52;100348.84;5030025;28;20036;-24
2021/06/02 09:41:01;;;;;;;0.75;0.63;;;;;;;21.83;36.63;100354.88;5030063;28;20044;-24
2021/06/02 09:43:30;;;;;;;1.17;0.50;;;;;;;21.74;37.72;100351.16;5012347;28;20490;-24
2021/06/02 09:46:09;;;;;;;0.30;0.20;;;;;;;22.18;34.51;100353.69;5030199;28;20048;-24
2021/06/02 09:48:47;;;;;;;0.80;0.70;;;;;;;22.05;40.35;100351.66;5029951;28;20033;-24
2021/06/02 09:51:28;;;;;;;1.98;0.40;;;;;;;22.22;37.50;100351.19;5029864;28;20033;-25
2021/06/02 09:53:56;;;;;;;2.17;0.40;;;;;;;22.12;39.31;100343.16;5029732;28;20029;-24
2021/06/02 09:56:41;;;;;;;0.85;0.20;;;;;;;22.10;36.53;100348.88;5029702;28;20034;-24
2021/06/02 09:59:08;;;;;;;0.40;0.30;;;;;;;22.43;39.56;100349.91;5029891;28;20056;-24
2021/06/02 10:01:57;;;;;;;1.00;0.30;;;;;;;22.63;35.84;100356.16;5029843;28;20038;-24
2021/06/02 10:04:35;;;;;;;0.68;0.20;;;;;;;22.14;38.71;100355.34;5029759;28;20048;-23
2021/06/02 10:07:01;;;;;;;1.15;0.50;;;;;;;22.22;37.42;100330.25;5028878;28;20096;-23
2021/06/02 10:09:31;;;;;;;0.43;0.43;;;;;;;22.45;38.36;100347.69;5029978;28;20457;-23
2021/06/02 10:12:04;;;;;;;1.05;0.40;;;;;;;22.85;36.98;100345.50;5029709;28;20144;-24
2021/06/02 10:14:29;;;;;;;0.95;0.50;;;;;;;23.01;35.79;100337.13;5029420;28;20022;-24
2021/06/02 10:16:55;;;;;;;1.95;0.60;;;;;;;22.77;35.39;100343.44;5028577;28;20421;-23
2021/06/02 10:19:40;;;;;;;0.88;0.30;;;;;;;22.94;37.31;100340.19;5011848;28;20056;-24
2021/06/02 10:22:20;;;;;;;2.55;0.40;;;;;;;22.85;36.44;100334.63;5028549;28;20099;-23
2021/06/02 10:24:47;;;;;;;2.05;0.80;;;;;;;22.76;36.29;100332.84;5028195;28;20033;-24
2021/06/02 10:27:12;;;;;;;0.68;0.65;;;;;;;22.21;34.87;100333.25;5029507;28;20036;-24
2021/06/02 10:29:38;;;;;;;0.80;0.63;;;;;;;22.35;34.40;100339.66;5029185;28;20538;-23
2021/06/02 10:32:05;;;;;;;0.57;0.50;;;;;;;22.63;37.60;100339.84;5029345;28;20040;-24
2021/06/02 10:34:30;;;;;;;0.70;0.70;;;;;;;22.23;35.67;100331.06;5027574;28;20441;-23
2021/06/02 10:36:56;;;;;;;0.55;0.50;;;;;;;22.44;36.90;100324.31;5029061;28;20516;-24
2021/06/02 10:39:21;;;;;;;0.63;0.45;;;;;;;23.05;36.54;100324.59;5011389;28;20091;-23
2021/06/02 10:41:50;;;;;;;2.17;0.77;;;;;;;23.26;35.63;100325.84;5027776;28;20045;-24
2021/06/02 10:44:22;;;;;;;1.40;0.80;;;;;;;23.53;35.69;100326.25;5011348;28;20029;-23
2021/06/02 10:46:48;;;;;;;0.73;0.73;;;;;;;24.32;33.86;100307.03;5027774;28;20505;-24
2021/06/02 10:49:13;;;;;;;0.88;0.70;;;;;;;23.79;34.59;100329.34;5027702;28;20033;-24
2021/06/02 10:51:38;;;;;;;0.95;0.70;;;;;;;23.71;35.00;100330.00;5028641;28;20106;-24
2021/06/02 10:54:12;;;;;;;0.80;0.63;;;;;;;22.80;34.85;100312.13;5029134;28;20037;-24
2021/06/02 10:56:41;;;;;;;14.80;1.50;;;;;;;22.99;35.76;100293.91;5028642;28;20460;-23
2021/06/02 10:59:35;;;;;;;2.17;0.90;;;;;;;24.59;33.05;100319.03;5028662;28;20452;-23
2021/06/02 11:02:05;;;;;;;13.20;1.98;;;;;;;24.03;35.39;100327.22;5028566;28;20112;-24
2021/06/02 11:04:30;;;;;;;33.53;2.58;;;;;;;24.90;32.52;100315.59;5028038;28;20037;-24
2021/06/02 11:07:20;;;;;;;5.68;1.02;;;;;;;25.59;31.84;100307.88;5027588;28;20033;-24
2021/06/02 11:10:21;;;;;;;3.72;0.98;;;;;;;25.51;32.07;100311.38;5028736;28;20033;-24
2021/06/02 11:12:50;;;;;;;1.73;1.00;;;;;;;24.49;33.87;100302.88;5009281;28;20029;-23
2021/06/02 11:15:30;;;;;;;2.03;0.95;;;;;;;24.55;35.05;100315.28;5028064;28;20048;-23
2021/06/02 11:18:08;;;;;;;2.05;0.95;;;;;;;25.05;34.22;100312.53;5028483;28;20090;-24
2021/06/02 11:20:44;;;;;;;2.38;0.98;;;;;;;25.56;30.71;100300.34;5028291;28;20026;-24
2021/06/02 11:23:11;;;;;;;15.07;2.03;;;;;;;25.32;32.59;100311.59;5028764;28;20664;-23
2021/06/02 11:25:40;;;;;;;5.40;1.77;;;;;;;24.99;31.81;100300.13;5028335;28;20033;-23
2021/06/02 11:28:06;;;;;;;11.35;1.48;;;;;;;25.54;32.84;100297.13;5028459;28;20283;-23
2021/06/02 11:30:32;;;;;;;2.97;0.90;;;;;;;24.82;32.36;100314.41;5027924;28;20453;-23
2021/06/02 11:32:59;;;;;;;15.95;1.92;;;;;;;24.42;32.68;100304.09;5028149;28;20486;-23
2021/06/02 11:36:02;;;;;;;22.80;2.20;;;;;;;24.57;33.72;100304.91;5028148;28;20034;-23
2021/06/02 11:38:28;;;;;;;24.95;2.47;;;;;;;24.71;35.89;100302.94;5027832;28;20227;-24
2021/06/02 11:40:54;;;;;;;4.78;1.35;;;;;;;24.24;37.66;100299.56;5027973;28;20037;-24
2021/06/02 11:43:20;;;;;;;1.60;1.02;;;;;;;23.84;33.53;100297.38;5027986;28;20033;-24
2021/06/02 11:45:49;;;;;;;1.70;0.98;;;;;;;22.74;36.33;100291.56;5027811;28;20041;-24
2021/06/02 11:48:22;;;;;;;1.00;0.90;;;;;;;22.56;36.83;100293.19;5027817;28;20029;-24
2021/06/02 11:50:47;;;;;;;12.10;1.85;;;;;;;22.38;37.56;100292.88;5028070;28;20037;-24
2021/06/02 11:53:13;;;;;;;59.42;3.47;;;;;;;22.41;38.38;100300.47;5027499;28;20053;-24